Time;durP1;ratioP1;P1;durP2;ratioP2;P2;SDS_P1;SDS_P2;PMS_P1;PMS_P2;Temp;Humidity;BMP_temperature;BMP_pressure;BME280_temperature;BME280_humidity;BME280_pressure;Samples;Min_cycle;Max_cycle;Signal;HPM_P1;HPM_P2
2023/03/17 00:01:35;;;;;;;0.50;0.50;;;;;;;5.62;64.00;97141.53;5008235;28;20471;-56
2023/03/17 00:04:02;;;;;;;0.50;0.50;;;;;;;5.20;66.85;97156.41;5007712;28;20088;-59
2023/03/17 00:06:30;;;;;;;0.50;0.50;;;;;;;5.22;66.77;97159.59;5008306;28;20046;-60
2023/03/17 00:08:57;;;;;;;0.40;0.40;;;;;;;5.37;67.12;97167.28;5022529;28;20107;-57
2023/03/17 00:11:25;;;;;;;0.50;0.50;;;;;;;5.02;66.50;97111.78;5007637;28;20049;-60
2023/03/17 00:13:53;;;;;;;0.50;0.50;;;;;;;5.31;67.66;97168.63;5007119;28;20152;-60
2023/03/17 00:16:23;;;;;;;0.50;0.50;;;;;;;5.10;68.75;97163.09;5007295;28;20136;-59
2023/03/17 00:18:52;;;;;;;0.40;0.40;;;;;;;4.91;69.86;97170.94;5007332;28;20050;-56
2023/03/17 00:21:26;;;;;;;0.45;0.45;;;;;;;4.78;71.13;97171.16;5007688;28;20077;-58
2023/03/17 00:23:54;;;;;;;0.50;0.50;;;;;;;4.97;70.75;97179.78;5007090;28;20124;-59
2023/03/17 00:26:21;;;;;;;0.50;0.50;;;;;;;5.08;71.06;97178.28;5007506;28;20058;-56
2023/03/17 00:28:48;;;;;;;0.50;0.50;;;;;;;4.82;71.86;97175.66;5006936;28;20120;-59
2023/03/17 00:31:19;;;;;;;0.40;0.40;;;;;;;4.59;73.19;97186.09;5005677;28;20077;-57
2023/03/17 00:33:47;;;;;;;0.47;0.47;;;;;;;4.63;73.82;97187.03;5006784;28;20092;-59
2023/03/17 00:36:18;;;;;;;0.50;0.50;;;;;;;4.27;73.19;97107.16;5007339;28;20115;-60
2023/03/17 00:38:45;;;;;;;0.40;0.40;;;;;;;5.02;72.55;97180.41;5007113;28;20057;-59
2023/03/17 00:41:12;;;;;;;0.40;0.40;;;;;;;4.30;72.59;97106.50;5007344;28;20093;-60
2023/03/17 00:43:40;;;;;;;0.40;0.40;;;;;;;4.83;72.81;97162.75;5006409;28;20824;-59
2023/03/17 00:46:22;;;;;;;0.40;0.40;;;;;;;5.04;71.47;97174.59;5009315;28;20585;-56
2023/03/17 00:48:50;;;;;;;;;;;;;;;4.99;71.33;97161.06;5042062;28;20063;-59
2023/03/17 00:51:16;;;;;;;0.40;0.40;;;;;;;4.89;70.58;97166.91;5026766;28;19929;-56
2023/03/17 00:53:43;;;;;;;0.40;0.40;;;;;;;4.94;70.38;97169.47;5026430;28;20049;-57
2023/03/17 00:56:15;;;;;;;0.40;0.40;;;;;;;4.89;68.89;97161.41;5026834;28;20045;-57
2023/03/17 00:58:43;;;;;;;0.40;0.40;;;;;;;4.90;69.53;97154.81;5023711;28;20057;-56
2023/03/17 01:01:11;;;;;;;0.50;0.50;;;;;;;5.16;68.81;97182.91;5005458;28;20052;-56
2023/03/17 01:03:38;;;;;;;0.43;0.43;;;;;;;4.36;67.93;97094.22;5005988;28;20050;-58
2023/03/17 01:06:09;;;;;;;0.40;0.40;;;;;;;5.02;68.34;97187.84;5006437;28;20406;-59
2023/03/17 01:08:37;;;;;;;0.40;0.40;;;;;;;4.71;67.59;97137.97;5005054;28;20104;-60
2023/03/17 01:11:04;;;;;;;0.40;0.40;;;;;;;4.90;67.84;97174.81;5005266;28;20050;-60
2023/03/17 01:13:31;;;;;;;0.40;0.40;;;;;;;4.77;67.45;97175.06;5004873;28;20054;-60
2023/03/17 01:15:58;;;;;;;0.40;0.40;;;;;;;4.64;67.79;97185.09;5005227;28;20125;-55
2023/03/17 01:18:24;;;;;;;0.40;0.40;;;;;;;4.84;67.20;97183.59;5005553;28;20441;-58
2023/03/17 01:20:52;;;;;;;0.50;0.50;;;;;;;4.83;67.03;97179.22;5002635;28;20060;-56
2023/03/17 01:23:18;;;;;;;0.40;0.40;;;;;;;4.72;67.06;97186.19;5001328;28;20070;-59
2023/03/17 01:25:45;;;;;;;0.40;0.40;;;;;;;4.47;67.53;97158.53;4986134;28;20104;-59
2023/03/17 01:28:14;;;;;;;0.40;0.40;;;;;;;4.56;67.04;97186.75;4986740;28;20050;-55
2023/03/17 01:30:42;;;;;;;0.40;0.40;;;;;;;4.60;66.46;97182.22;4986068;28;20046;-60
2023/03/17 01:33:11;;;;;;;0.43;0.43;;;;;;;4.69;67.39;97180.22;4986535;28;20099;-56
2023/03/17 01:35:40;;;;;;;0.40;0.40;;;;;;;4.69;66.40;97182.97;4986018;28;20141;-60
2023/03/17 01:38:07;;;;;;;0.40;0.40;;;;;;;4.71;66.32;97181.84;4986507;28;20066;-56
2023/03/17 01:40:42;;;;;;;0.50;0.50;;;;;;;4.35;65.77;97130.19;4985676;28;20060;-57
2023/03/17 01:43:09;;;;;;;0.40;0.40;;;;;;;4.53;65.27;97181.94;4986196;28;20054;-56
2023/03/17 01:46:16;;;;;;;0.40;0.40;;;;;;;4.55;66.02;97179.63;5001041;28;20042;-59
2023/03/17 01:49:05;;;;;;;0.40;0.40;;;;;;;4.57;65.66;97173.81;4985960;28;20062;-58
2023/03/17 01:51:41;;;;;;;0.50;0.50;;;;;;;4.58;65.94;97173.50;4986512;28;20153;-56
2023/03/17 01:54:15;;;;;;;0.50;0.50;;;;;;;4.66;65.85;97186.38;4985724;28;20112;-60
2023/03/17 01:56:47;;;;;;;0.40;0.40;;;;;;;4.53;65.87;97165.47;4986155;28;20046;-57
2023/03/17 01:59:20;;;;;;;0.40;0.40;;;;;;;4.77;65.59;97186.03;4996589;28;20080;-56
2023/03/17 02:01:49;;;;;;;0.40;0.40;;;;;;;4.60;65.02;97187.69;5025500;28;20307;-57
2023/03/17 02:04:17;;;;;;;0.50;0.50;;;;;;;4.79;64.76;97211.19;5025408;28;20062;-59
2023/03/17 02:06:45;;;;;;;0.40;0.40;;;;;;;3.82;65.38;97089.59;5025320;28;20466;-59
2023/03/17 02:09:24;;;;;;;0.50;0.50;;;;;;;4.40;66.19;97210.34;5023989;28;20476;-59
2023/03/17 02:11:51;;;;;;;0.40;0.40;;;;;;;4.54;66.05;97197.25;5025084;28;20495;-59
2023/03/17 02:14:17;;;;;;;0.50;0.50;;;;;;;4.52;65.86;97202.25;5024512;28;20536;-59
2023/03/17 02:16:44;;;;;;;0.50;0.50;;;;;;;4.62;66.43;97206.56;5024692;28;20049;-59
2023/03/17 02:19:11;;;;;;;0.40;0.40;;;;;;;4.69;65.63;97196.69;5024013;28;20049;-55
2023/03/17 02:21:47;;;;;;;0.50;0.50;;;;;;;4.77;65.08;97207.97;5024543;28;20060;-59
2023/03/17 02:24:24;;;;;;;0.50;0.50;;;;;;;4.74;65.84;97201.22;5023611;28;20049;-56
2023/03/17 02:26:53;;;;;;;0.43;0.43;;;;;;;4.82;65.26;97205.06;5024897;28;20080;-59
2023/03/17 02:29:21;;;;;;;0.43;0.43;;;;;;;4.72;65.88;97210.91;5024699;28;20050;-59
2023/03/17 02:31:49;;;;;;;0.40;0.40;;;;;;;4.73;66.17;97207.03;5024824;28;20127;-57
2023/03/17 02:34:16;;;;;;;0.50;0.50;;;;;;;4.71;65.41;97210.06;5025126;28;20147;-60
2023/03/17 02:36:43;;;;;;;0.50;0.50;;;;;;;4.79;65.68;97211.19;5024760;28;20053;-59
2023/03/17 02:39:09;;;;;;;0.40;0.40;;;;;;;4.05;65.04;97092.88;5024800;28;20102;-60
2023/03/17 02:41:36;;;;;;;0.40;0.40;;;;;;;4.59;65.72;97205.28;5024634;28;20148;-59
2023/03/17 02:44:03;;;;;;;0.47;0.47;;;;;;;4.12;64.42;97137.88;5024374;28;20053;-59
2023/03/17 02:46:30;;;;;;;0.40;0.40;;;;;;;4.27;63.57;97167.47;5023053;28;20101;-59
2023/03/17 02:48:57;;;;;;;0.40;0.40;;;;;;;4.81;63.22;97206.16;5024215;28;20534;-59
2023/03/17 02:51:24;;;;;;;0.50;0.50;;;;;;;5.00;62.38;97223.03;5023476;28;20119;-59
2023/03/17 02:53:50;;;;;;;0.45;0.45;;;;;;;4.52;62.51;97191.28;5038941;28;20512;-58
2023/03/17 02:56:17;;;;;;;0.40;0.40;;;;;;;4.77;63.08;97229.91;5023595;28;20123;-59
2023/03/17 02:58:44;;;;;;;0.40;0.40;;;;;;;4.12;63.09;97170.75;5038744;28;20057;-59
2023/03/17 03:01:11;;;;;;;0.40;0.40;;;;;;;4.88;62.26;97233.91;5019198;28;20469;-59
2023/03/17 03:03:38;;;;;;;0.40;0.40;;;;;;;4.84;62.74;97241.22;5004149;28;20064;-57
2023/03/17 03:06:05;;;;;;;0.50;0.50;;;;;;;4.58;62.15;97172.72;5004224;28;20351;-56
2023/03/17 03:08:32;;;;;;;0.50;0.50;;;;;;;5.15;61.39;97241.72;5004186;28;20124;-60
2023/03/17 03:11:01;;;;;;;0.40;0.40;;;;;;;4.73;62.01;97234.47;5004344;28;20046;-57
2023/03/17 03:13:27;;;;;;;0.40;0.40;;;;;;;4.71;61.60;97236.72;5004294;28;20057;-59
2023/03/17 03:15:55;;;;;;;0.40;0.40;;;;;;;4.65;62.19;97239.66;5004514;28;20104;-59
2023/03/17 03:18:21;;;;;;;0.40;0.40;;;;;;;4.72;62.22;97257.53;5002873;28;20538;-56
2023/03/17 03:20:48;;;;;;;0.50;0.50;;;;;;;4.63;62.21;97252.09;5002430;28;20053;-56
2023/03/17 03:23:15;;;;;;;0.43;0.43;;;;;;;4.46;62.10;97236.47;5004378;28;20050;-56
2023/03/17 03:25:42;;;;;;;0.40;0.40;;;;;;;4.57;61.72;97256.13;5002904;28;20046;-59
2023/03/17 03:28:09;;;;;;;0.40;0.40;;;;;;;4.30;62.23;97227.13;5004478;28;20072;-59
2023/03/17 03:30:36;;;;;;;0.40;0.40;;;;;;;4.51;62.64;97244.53;5004002;28;20093;-58
2023/03/17 03:33:03;;;;;;;0.40;0.40;;;;;;;4.59;62.25;97262.91;5018526;28;20045;-56
2023/03/17 03:35:30;;;;;;;0.40;0.40;;;;;;;4.40;62.25;97269.88;5004056;28;20054;-56
2023/03/17 03:37:57;;;;;;;0.50;0.50;;;;;;;4.68;61.68;97248.38;5003835;28;20046;-56
2023/03/17 03:40:25;;;;;;;0.40;0.40;;;;;;;4.37;62.77;97265.84;5004058;28;20054;-59
2023/03/17 03:42:51;;;;;;;0.40;0.40;;;;;;;4.43;62.57;97259.06;5004226;28;20124;-59
2023/03/17 03:45:18;;;;;;;0.40;0.40;;;;;;;4.38;62.69;97261.97;5003516;28;20057;-59
2023/03/17 03:47:44;;;;;;;0.40;0.40;;;;;;;4.09;62.95;97225.41;5003928;28;20077;-59
2023/03/17 03:50:12;;;;;;;0.40;0.40;;;;;;;4.43;62.31;97264.53;5019184;28;20085;-59
2023/03/17 03:52:39;;;;;;;0.40;0.40;;;;;;;4.06;61.69;97215.88;5001930;28;20505;-59
2023/03/17 03:55:06;;;;;;;0.40;0.40;;;;;;;4.36;62.36;97257.94;5003979;28;20054;-60
2023/03/17 03:57:32;;;;;;;0.40;0.40;;;;;;;4.47;62.09;97259.22;5004114;28;20515;-60
2023/03/17 03:59:59;;;;;;;0.40;0.40;;;;;;;4.36;62.18;97264.22;5014311;28;20162;-59
2023/03/17 04:02:26;;;;;;;0.40;0.40;;;;;;;4.38;62.48;97266.63;5024050;28;20076;-56
2023/03/17 04:04:53;;;;;;;0.40;0.40;;;;;;;4.01;62.45;97243.47;5027210;28;20115;-59
2023/03/17 04:07:20;;;;;;;0.40;0.40;;;;;;;4.35;62.61;97268.09;5027484;28;20068;-59
2023/03/17 04:09:48;;;;;;;0.40;0.40;;;;;;;4.23;62.08;97281.69;5026095;28;20591;-56
2023/03/17 04:12:15;;;;;;;0.40;0.40;;;;;;;4.41;61.91;97283.25;5025406;28;20132;-59
2023/03/17 04:14:43;;;;;;;0.40;0.40;;;;;;;4.49;61.40;97279.69;5026667;28;20531;-58
2023/03/17 04:17:10;;;;;;;0.40;0.40;;;;;;;4.35;61.51;97284.56;5027251;28;20111;-56
2023/03/17 04:19:37;;;;;;;0.40;0.40;;;;;;;4.48;61.28;97283.56;5025741;28;20107;-56
2023/03/17 04:22:06;;;;;;;0.50;0.50;;;;;;;4.59;60.92;97295.81;5026995;28;20598;-59
2023/03/17 04:24:33;;;;;;;0.50;0.50;;;;;;;4.51;61.53;97288.41;5026671;28;20054;-60
2023/03/17 04:27:01;;;;;;;0.40;0.40;;;;;;;4.37;61.77;97304.25;5027149;28;20083;-59
2023/03/17 04:29:31;;;;;;;0.40;0.40;;;;;;;4.35;61.11;97294.72;5026637;28;20084;-59
2023/03/17 04:31:57;;;;;;;0.40;0.40;;;;;;;4.60;60.75;97302.91;5027239;28;20053;-57
2023/03/17 04:34:25;;;;;;;0.40;0.40;;;;;;;4.65;60.44;97300.00;5041687;28;20049;-59
2023/03/17 04:36:52;;;;;;;0.40;0.40;;;;;;;4.44;59.65;97299.06;5027265;28;20606;-56
2023/03/17 04:39:18;;;;;;;0.40;0.40;;;;;;;4.52;60.16;97317.44;5026697;28;20516;-59
2023/03/17 04:41:45;;;;;;;0.40;0.40;;;;;;;4.60;60.22;97390.69;5026875;28;20366;-56
2023/03/17 04:44:12;;;;;;;0.40;0.40;;;;;;;4.19;59.89;97274.41;5025895;28;20057;-56
2023/03/17 04:46:39;;;;;;;0.40;0.40;;;;;;;4.37;60.92;97331.66;5026778;28;20115;-58
2023/03/17 04:49:05;;;;;;;0.40;0.40;;;;;;;4.42;60.71;97320.53;5026657;28;20089;-56
2023/03/17 04:51:32;;;;;;;0.40;0.40;;;;;;;4.36;61.13;97319.06;5025360;28;20060;-59
2023/03/17 04:54:00;;;;;;;0.40;0.40;;;;;;;4.19;61.43;97340.19;5041162;28;20057;-56
2023/03/17 04:56:27;;;;;;;0.40;0.40;;;;;;;4.31;61.56;97326.66;5026756;28;20473;-59
2023/03/17 04:58:57;;;;;;;0.40;0.40;;;;;;;4.20;61.39;97334.41;5024916;28;20056;-59
2023/03/17 05:01:23;;;;;;;0.40;0.40;;;;;;;4.23;60.68;97336.50;4995545;28;20077;-57
2023/03/17 05:03:50;;;;;;;0.40;0.40;;;;;;;4.00;61.28;97282.97;4986885;28;20046;-59
2023/03/17 05:06:17;;;;;;;0.40;0.40;;;;;;;4.24;61.38;97334.56;5001458;28;20089;-56
2023/03/17 05:08:43;;;;;;;0.40;0.40;;;;;;;4.50;60.66;97341.63;4986640;28;20054;-59
2023/03/17 05:11:11;;;;;;;0.40;0.40;;;;;;;4.33;60.94;97330.69;4987124;28;20100;-59
2023/03/17 05:13:39;;;;;;;0.43;0.43;;;;;;;4.55;60.55;97352.44;4986262;28;20065;-58
2023/03/17 05:16:07;;;;;;;0.45;0.45;;;;;;;3.72;60.59;97248.78;4986143;28;20157;-59
2023/03/17 05:18:35;;;;;;;0.40;0.40;;;;;;;4.40;60.60;97331.00;4986383;28;20050;-59
2023/03/17 05:21:02;;;;;;;0.40;0.40;;;;;;;4.31;60.73;97332.97;4986986;28;20134;-59
2023/03/17 05:23:29;;;;;;;0.50;0.50;;;;;;;4.03;60.05;97270.56;4986182;28;20116;-56
2023/03/17 05:25:55;;;;;;;0.40;0.40;;;;;;;4.59;59.28;97331.47;4986682;28;20054;-60
2023/03/17 05:28:23;;;;;;;0.40;0.40;;;;;;;4.66;58.97;97328.25;4986381;28;20054;-56
2023/03/17 05:30:50;;;;;;;0.50;0.50;;;;;;;2.52;58.60;96973.44;4985432;28;20449;-56
2023/03/17 05:33:18;;;;;;;0.40;0.40;;;;;;;4.33;58.91;97286.81;4986513;28;20077;-59
2023/03/17 05:35:46;;;;;;;0.40;0.40;;;;;;;4.69;58.97;97322.09;4986511;28;20057;-59
2023/03/17 05:38:14;;;;;;;0.50;0.50;;;;;;;4.91;58.32;97329.31;4985833;28;20058;-56
2023/03/17 05:40:42;;;;;;;0.40;0.40;;;;;;;5.06;58.25;97342.53;4986096;28;20050;-56
2023/03/17 05:43:09;;;;;;;0.40;0.40;;;;;;;5.12;57.35;97331.00;4984351;28;20058;-59
2023/03/17 05:45:36;;;;;;;0.50;0.50;;;;;;;4.92;57.24;97336.41;4985780;28;20046;-58
2023/03/17 05:48:03;;;;;;;0.50;0.50;;;;;;;4.92;57.61;97319.94;4992727;28;20128;-60
2023/03/17 05:50:31;;;;;;;0.40;0.40;;;;;;;4.97;57.48;97328.00;5022453;28;20110;-60
2023/03/17 05:52:58;;;;;;;0.50;0.50;;;;;;;5.12;56.95;97338.47;5025325;28;20045;-57
2023/03/17 05:55:25;;;;;;;0.50;0.50;;;;;;;5.14;56.75;97358.19;5023380;28;20057;-61
2023/03/17 05:57:51;;;;;;;0.50;0.50;;;;;;;5.54;55.91;97353.97;5025406;28;20049;-60
2023/03/17 06:00:20;;;;;;;0.40;0.40;;;;;;;5.52;55.42;97351.53;5024631;28;20046;-58
2023/03/17 06:02:47;;;;;;;0.50;0.50;;;;;;;4.32;56.21;97174.72;5024813;28;20574;-56
2023/03/17 06:05:13;;;;;;;0.50;0.50;;;;;;;5.46;55.47;97360.31;5024485;28;20054;-60
2023/03/17 06:07:40;;;;;;;0.50;0.50;;;;;;;5.14;55.34;97311.50;5017416;28;20627;-57
2023/03/17 06:10:21;;;;;;;0.40;0.40;;;;;;;5.22;55.65;97335.34;4985304;28;20151;-61
2023/03/17 06:12:48;;;;;;;0.50;0.50;;;;;;;5.64;54.75;97370.09;4985614;28;20101;-57
2023/03/17 06:15:15;;;;;;;0.50;0.50;;;;;;;5.29;54.91;97358.44;4985160;28;20725;-60
2023/03/17 06:17:42;;;;;;;0.50;0.50;;;;;;;5.44;55.56;97387.28;4985904;28;20061;-57
2023/03/17 06:20:10;;;;;;;0.50;0.50;;;;;;;5.83;54.72;97390.53;4985276;28;20496;-59
2023/03/17 06:22:37;;;;;;;0.50;0.50;;;;;;;5.52;54.14;97328.75;5000412;28;20050;-58
2023/03/17 06:25:14;;;;;;;0.50;0.50;;;;;;;6.00;54.01;97411.66;4984843;28;20062;-60
2023/03/17 06:27:41;;;;;;;0.50;0.50;;;;;;;5.60;54.24;97374.63;4985536;28;20046;-59
2023/03/17 06:30:09;;;;;;;0.50;0.50;;;;;;;5.99;53.81;97399.03;4999818;28;20050;-59
2023/03/17 06:32:35;;;;;;;0.40;0.40;;;;;;;6.11;53.05;97423.88;4983891;28;20066;-56
2023/03/17 06:35:04;;;;;;;0.60;0.60;;;;;;;6.33;53.19;97420.00;4985431;28;20316;-55
2023/03/17 06:37:30;;;;;;;0.50;0.50;;;;;;;6.36;53.25;97403.66;4984081;28;20050;-59
2023/03/17 06:39:58;;;;;;;0.60;0.60;;;;;;;6.69;51.64;97414.72;4988107;28;20050;-61
2023/03/17 06:42:24;;;;;;;0.50;0.50;;;;;;;6.72;51.87;97417.63;5019868;28;20057;-56
2023/03/17 06:44:51;;;;;;;0.50;0.50;;;;;;;6.69;51.94;97429.31;5023816;28;20118;-58
2023/03/17 06:47:18;;;;;;;0.60;0.60;;;;;;;6.85;51.94;97413.78;5024535;28;20456;-58
2023/03/17 06:49:45;;;;;;;0.50;0.50;;;;;;;6.83;51.37;97427.06;5023503;28;20107;-57
2023/03/17 06:52:12;;;;;;;0.60;0.60;;;;;;;6.42;52.83;97416.06;5024381;28;20140;-59
2023/03/17 06:54:40;;;;;;;0.52;0.52;;;;;;;6.40;53.38;97410.13;5022438;28;20065;-57
2023/03/17 06:57:08;;;;;;;0.50;0.50;;;;;;;6.24;53.53;97416.53;5024160;28;20053;-57
2023/03/17 06:59:35;;;;;;;0.50;0.50;;;;;;;6.36;53.12;97433.09;5023487;28;20049;-58
2023/03/17 07:02:02;;;;;;;0.40;0.40;;;;;;;6.49;53.63;97457.63;5024078;28;20045;-55
2023/03/17 07:04:30;;;;;;;0.50;0.50;;;;;;;6.38;54.17;97406.88;5008469;28;20054;-57
2023/03/17 07:06:56;;;;;;;0.50;0.50;;;;;;;6.12;52.70;97315.47;4984991;28;20054;-56
2023/03/17 07:09:23;;;;;;;0.50;0.50;;;;;;;6.53;53.98;97431.03;4999615;28;20054;-57
2023/03/17 07:11:50;;;;;;;0.50;0.50;;;;;;;6.30;53.68;97432.50;4984607;28;20058;-58
2023/03/17 07:14:17;;;;;;;0.50;0.50;;;;;;;6.19;53.35;97434.03;4999191;28;20062;-58
2023/03/17 07:16:44;;;;;;;0.50;0.50;;;;;;;6.39;53.50;97441.50;4984614;28;20055;-56
2023/03/17 07:19:11;;;;;;;0.50;0.50;;;;;;;6.82;52.71;97444.75;4997051;28;20065;-56
2023/03/17 07:21:37;;;;;;;0.60;0.60;;;;;;;6.92;52.02;97383.78;4984347;28;20548;-56
2023/03/17 07:24:04;;;;;;;0.60;0.60;;;;;;;6.95;52.15;97449.19;4984477;28;20078;-56
2023/03/17 07:26:31;;;;;;;0.50;0.50;;;;;;;6.67;52.75;97445.34;4982929;28;20054;-58
2023/03/17 07:29:00;;;;;;;0.50;0.50;;;;;;;6.52;53.13;97445.94;4999057;28;20142;-56
2023/03/17 07:31:27;;;;;;;0.50;0.50;;;;;;;6.45;52.43;97420.91;4999049;28;20046;-56
2023/03/17 07:33:56;;;;;;;0.50;0.50;;;;;;;6.48;52.51;97433.19;4984310;28;20050;-58
2023/03/17 07:36:23;;;;;;;0.50;0.50;;;;;;;6.83;52.03;97438.09;4984330;28;20061;-57
2023/03/17 07:38:49;;;;;;;0.60;0.60;;;;;;;7.25;51.50;97431.41;4987198;28;20555;-59
2023/03/17 07:41:17;;;;;;;0.60;0.60;;;;;;;7.23;51.54;97439.19;4988391;28;20042;-59
2023/03/17 07:43:43;;;;;;;0.60;0.60;;;;;;;6.25;51.83;97319.09;4986717;28;20065;-56
2023/03/17 07:46:11;;;;;;;0.60;0.60;;;;;;;7.12;52.04;97427.00;4988171;28;20116;-57
2023/03/17 07:48:41;;;;;;;0.57;0.57;;;;;;;7.41;51.91;97446.13;4987724;28;20417;-59
2023/03/17 07:51:20;;;;;;;0.60;0.60;;;;;;;6.81;51.58;97447.84;4987981;28;20145;-59
2023/03/17 07:53:48;;;;;;;0.60;0.60;;;;;;;7.06;51.71;97450.38;4987690;28;20445;-59
2023/03/17 07:56:16;;;;;;;0.50;0.50;;;;;;;6.86;51.57;97466.91;4999055;28;20547;-56
2023/03/17 07:58:43;;;;;;;0.60;0.60;;;;;;;7.28;51.74;97447.25;5006568;28;20050;-61
2023/03/17 08:01:10;;;;;;;0.50;0.50;;;;;;;7.16;51.85;97422.41;5007106;28;20061;-57
2023/03/17 08:03:37;;;;;;;0.60;0.60;;;;;;;7.51;50.13;97433.88;5006603;28;20077;-57
2023/03/17 08:06:07;;;;;;;0.60;0.60;;;;;;;7.60;50.39;97454.69;5005757;28;20885;-57
2023/03/17 08:08:34;;;;;;;0.60;0.60;;;;;;;7.14;51.15;97474.28;5007228;28;20196;-62
2023/03/17 08:11:03;;;;;;;0.50;0.50;;;;;;;7.77;50.17;97447.38;5006300;28;20046;-60
2023/03/17 08:13:31;;;;;;;0.60;0.60;;;;;;;6.86;51.19;97319.03;5006339;28;20061;-57
2023/03/17 08:15:57;;;;;;;0.57;0.57;;;;;;;7.36;49.63;97454.63;5006014;28;20582;-58
2023/03/17 08:18:24;;;;;;;0.60;0.60;;;;;;;7.32;50.19;97472.16;5006768;28;20112;-59
2023/03/17 08:20:51;;;;;;;0.60;0.60;;;;;;;6.82;51.11;97397.94;5006770;28;20060;-59
2023/03/17 08:23:18;;;;;;;0.60;0.60;;;;;;;7.32;50.80;97453.69;5006961;28;20050;-58
2023/03/17 08:25:46;;;;;;;0.50;0.50;;;;;;;7.35;51.08;97458.50;5008047;28;20049;-59
2023/03/17 08:28:14;;;;;;;0.50;0.50;;;;;;;7.88;50.43;97454.03;5008675;28;20114;-59
2023/03/17 08:30:41;;;;;;;0.63;0.63;;;;;;;7.96;50.82;97458.66;5014903;28;20062;-57
2023/03/17 08:33:08;;;;;;;0.60;0.60;;;;;;;7.19;51.15;97427.22;5007132;28;20123;-58
2023/03/17 08:35:36;;;;;;;0.60;0.60;;;;;;;7.05;51.90;97432.22;5005815;28;20052;-58
2023/03/17 08:38:03;;;;;;;0.55;0.55;;;;;;;6.35;53.23;97380.03;5006362;28;20046;-56
2023/03/17 08:40:30;;;;;;;0.55;0.55;;;;;;;6.93;54.09;97456.97;5009059;28;20073;-58
2023/03/17 08:42:57;;;;;;;0.50;0.50;;;;;;;7.47;53.13;97461.34;5034208;28;20692;-59
2023/03/17 08:45:24;;;;;;;0.60;0.60;;;;;;;6.70;54.58;97391.59;5005482;28;20081;-58
2023/03/17 08:47:51;;;;;;;0.60;0.60;;;;;;;4.85;54.63;97100.94;5005890;28;20050;-58
2023/03/17 08:50:21;;;;;;;0.50;0.50;;;;;;;7.16;55.48;97471.19;5004740;28;20119;-58
2023/03/17 08:52:48;;;;;;;0.60;0.60;;;;;;;6.89;56.54;97469.78;5004662;28;20137;-59
2023/03/17 08:55:15;;;;;;;0.57;0.57;;;;;;;7.65;55.62;97473.75;5005884;28;20054;-59
2023/03/17 08:57:43;;;;;;;0.50;0.50;;;;;;;7.94;54.51;97455.44;5005676;28;20049;-59
2023/03/17 09:00:15;;;;;;;0.50;0.50;;;;;;;7.94;54.95;97469.22;5005983;28;20064;-56
2023/03/17 09:02:42;;;;;;;0.60;0.60;;;;;;;7.94;55.04;97463.69;5005781;28;20058;-57
2023/03/17 09:05:14;;;;;;;0.70;0.70;;;;;;;7.46;57.18;97451.44;5021047;28;20128;-58
2023/03/17 09:07:40;;;;;;;0.60;0.60;;;;;;;7.05;57.96;97468.03;5005150;28;20058;-58
2023/03/17 09:10:09;;;;;;;0.60;0.60;;;;;;;6.38;59.00;97360.09;5018471;28;20061;-58
2023/03/17 09:12:37;;;;;;;0.60;0.60;;;;;;;7.44;58.47;97488.75;5004525;28;20061;-57
2023/03/17 09:15:04;;;;;;;0.60;0.60;;;;;;;7.13;58.26;97467.16;5004900;28;20053;-58
2023/03/17 09:17:31;;;;;;;0.60;0.60;;;;;;;7.55;57.39;97479.72;5003502;28;20125;-57
2023/03/17 09:19:58;;;;;;;0.60;0.60;;;;;;;7.80;57.64;97454.94;5003517;28;20288;-58
2023/03/17 09:22:25;;;;;;;0.55;0.55;;;;;;;8.30;56.31;97483.09;5005564;28;20049;-58
2023/03/17 09:24:52;;;;;;;0.70;0.70;;;;;;;7.77;57.36;97469.44;5005601;28;20058;-57
2023/03/17 09:27:19;;;;;;;0.65;0.65;;;;;;;7.11;59.92;97466.69;5005858;28;20081;-56
2023/03/17 09:29:46;;;;;;;0.50;0.50;;;;;;;7.32;60.70;97470.22;5004250;28;20089;-58
2023/03/17 09:32:12;;;;;;;0.70;0.70;;;;;;;7.80;58.06;97477.81;5006130;28;20058;-58
2023/03/17 09:34:39;;;;;;;0.70;0.70;;;;;;;7.24;59.51;97471.09;5004385;28;20105;-58
2023/03/17 09:37:06;;;;;;;0.60;0.60;;;;;;;7.20;61.87;97459.16;5005868;28;20054;-58
2023/03/17 09:39:32;;;;;;;0.60;0.60;;;;;;;8.00;58.49;97468.66;5005347;28;20481;-59
2023/03/17 09:42:34;;;;;;;0.60;0.60;;;;;;;8.52;55.12;97397.03;5004051;28;20051;-58
2023/03/17 09:45:22;;;;;;;0.68;0.68;;;;;;;9.13;55.21;97467.53;5005527;28;20528;-60
2023/03/17 09:48:14;;;;;;;0.70;0.70;;;;;;;9.35;54.37;97469.75;5005300;28;20080;-59
2023/03/17 09:51:05;;;;;;;0.80;0.80;;;;;;;9.69;53.93;97463.59;5003981;28;20049;-60
2023/03/17 09:53:46;;;;;;;0.80;0.80;;;;;;;8.62;55.39;97476.63;5004643;28;20255;-60
2023/03/17 09:56:15;;;;;;;0.70;0.70;;;;;;;8.06;55.05;97356.16;5005141;28;20057;-59
2023/03/17 09:58:49;;;;;;;0.60;0.60;;;;;;;8.37;56.01;97433.63;5005050;28;20054;-59
2023/03/17 10:01:17;;;;;;;0.60;0.60;;;;;;;8.33;57.28;97465.84;5004306;28;20050;-59
2023/03/17 10:03:46;;;;;;;0.70;0.70;;;;;;;8.84;56.18;97465.06;5004497;28;20050;-58
2023/03/17 10:06:27;;;;;;;0.70;0.70;;;;;;;8.37;57.43;97464.00;5005073;28;20073;-61
2023/03/17 10:09:01;;;;;;;0.60;0.60;;;;;;;8.42;58.07;97458.25;5004342;28;20152;-57
2023/03/17 10:11:37;;;;;;;0.70;0.70;;;;;;;8.65;56.01;97459.34;5004999;28;20050;-58
2023/03/17 10:14:18;;;;;;;0.70;0.70;;;;;;;8.63;56.17;97458.91;5019088;28;20053;-58
2023/03/17 10:17:02;;;;;;;0.70;0.70;;;;;;;8.85;55.68;97466.69;5004849;28;20086;-57
2023/03/17 10:19:39;;;;;;;0.60;0.60;;;;;;;8.44;55.46;97462.25;5004367;28;20051;-59
2023/03/17 10:22:22;;;;;;;0.70;0.70;;;;;;;8.01;56.14;97356.38;5019834;28;20077;-58
2023/03/17 10:25:00;;;;;;;0.70;0.70;;;;;;;8.40;55.60;97399.81;5004344;28;20599;-59
2023/03/17 10:27:35;;;;;;;0.70;0.70;;;;;;;8.94;54.75;97442.50;5019271;28;20439;-59
2023/03/17 10:30:02;;;;;;;0.60;0.60;;;;;;;8.40;56.19;97461.34;5020033;28;20073;-58
2023/03/17 10:32:31;;;;;;;0.70;0.70;;;;;;;8.24;58.82;97462.38;5004751;28;20065;-59
2023/03/17 10:34:57;;;;;;;0.60;0.60;;;;;;;7.86;57.52;97420.47;5004299;28;20064;-58
2023/03/17 10:37:25;;;;;;;0.65;0.65;;;;;;;8.07;57.36;97386.13;5004861;28;20061;-59
2023/03/17 10:39:56;;;;;;;0.60;0.60;;;;;;;7.97;58.30;97457.50;5004142;28;20050;-58
2023/03/17 10:42:34;;;;;;;0.70;0.70;;;;;;;7.76;60.23;97463.13;5004859;28;20127;-57
2023/03/17 10:45:13;;;;;;;0.60;0.60;;;;;;;7.12;60.57;97420.66;5004536;28;20143;-58
2023/03/17 10:47:44;;;;;;;0.57;0.57;;;;;;;6.65;61.13;97301.75;5019608;28;20053;-58
2023/03/17 10:50:17;;;;;;;0.60;0.60;;;;;;;7.99;59.70;97445.00;5004247;28;20057;-57
2023/03/17 10:52:48;;;;;;;0.60;0.60;;;;;;;7.90;59.28;97451.75;5003929;28;20060;-59
2023/03/17 10:55:20;;;;;;;0.70;0.70;;;;;;;8.33;56.68;97452.84;5012562;28;20073;-59
2023/03/17 10:58:00;;;;;;;0.70;0.70;;;;;;;8.51;56.04;97456.97;4996379;28;20046;-57
2023/03/17 11:00:33;;;;;;;0.70;0.70;;;;;;;8.35;55.49;97424.88;4990511;28;20057;-57
2023/03/17 11:03:17;;;;;;;0.70;0.70;;;;;;;7.98;53.68;97415.00;5003961;28;20494;-58
2023/03/17 11:05:56;;;;;;;0.70;0.70;;;;;;;8.69;54.21;97430.69;5002392;28;20046;-58
2023/03/17 11:08:23;;;;;;;0.60;0.60;;;;;;;8.04;54.55;97441.19;5003893;28;20068;-58
2023/03/17 11:10:55;;;;;;;0.70;0.70;;;;;;;8.80;53.93;97425.50;5003456;28;20112;-59
2023/03/17 11:13:29;;;;;;;0.70;0.70;;;;;;;8.68;54.61;97439.31;5002974;28;20532;-60
2023/03/17 11:16:23;;;;;;;0.70;0.70;;;;;;;8.13;54.89;97411.53;5004125;28;20050;-57
2023/03/17 11:18:55;;;;;;;0.70;0.70;;;;;;;8.01;55.23;97447.41;5003805;28;20060;-56
2023/03/17 11:21:31;;;;;;;0.68;0.68;;;;;;;8.45;54.99;97446.50;5003567;28;20127;-57
2023/03/17 11:24:00;;;;;;;0.60;0.60;;;;;;;8.23;55.53;97444.22;5002071;28;20124;-60
2023/03/17 11:26:48;;;;;;;0.60;0.60;;;;;;;7.89;56.01;97430.84;5003838;28;20530;-59
2023/03/17 11:29:31;;;;;;;0.70;0.70;;;;;;;8.46;53.97;97431.53;5002507;28;20180;-57
2023/03/17 11:32:00;;;;;;;0.65;0.65;;;;;;;8.61;53.11;97441.88;5003638;28;20065;-56
2023/03/17 11:35:07;;;;;;;0.70;0.70;;;;;;;8.36;53.39;97350.00;5003421;28;20046;-58
2023/03/17 11:37:55;;;;;;;0.70;0.70;;;;;;;8.61;53.37;97430.84;5003878;28;20149;-58
2023/03/17 11:40:38;;;;;;;0.60;0.60;;;;;;;8.48;54.44;97409.91;5004970;28;20135;-58
2023/03/17 11:43:30;;;;;;;0.70;0.70;;;;;;;8.55;54.30;97435.00;4984235;28;20488;-56
2023/03/17 11:46:26;;;;;;;0.70;0.70;;;;;;;8.53;54.17;97434.53;4991780;28;20178;-57
2023/03/17 11:49:17;;;;;;;0.60;0.60;;;;;;;7.97;55.79;97436.25;4989177;28;20099;-57
2023/03/17 11:52:11;;;;;;;0.60;0.60;;;;;;;7.88;55.54;97426.47;5004240;28;20050;-57
2023/03/17 11:54:59;;;;;;;0.60;0.60;;;;;;;7.87;54.89;97433.13;5003774;28;20054;-54